createdAt,value
2023-03-31T00:01:24.406Z,53.65
2023-03-31T00:04:02.223Z,53.65
2023-03-31T00:06:38.213Z,52.72
2023-03-31T00:09:11.833Z,53.41
2023-03-31T00:11:41.142Z,53.52
2023-03-31T00:14:09.529Z,53.89
2023-03-31T00:16:39.340Z,54.11
2023-03-31T00:19:10.063Z,54.36
2023-03-31T00:21:38.122Z,54.62
2023-03-31T00:24:09.780Z,56.82
2023-03-31T00:26:38.561Z,55.87
2023-03-31T00:29:09.251Z,56.38
2023-03-31T00:31:39.175Z,56.01
2023-03-31T00:34:08.257Z,57.48
2023-03-31T00:36:45.996Z,58.28
2023-03-31T00:39:18.044Z,57.32
2023-03-31T00:41:46.239Z,57.62
2023-03-31T00:44:25.601Z,57.29
2023-03-31T00:47:02.269Z,57.07
2023-03-31T00:49:49.980Z,57.10
2023-03-31T00:52:22.972Z,57.37
2023-03-31T00:54:59.160Z,57.95
2023-03-31T00:57:32.747Z,59.95
2023-03-31T01:00:18.544Z,59.55
2023-03-31T01:02:56.051Z,60.78
2023-03-31T01:05:33.082Z,61.52
2023-03-31T01:08:02.741Z,61.29
2023-03-31T01:10:38.848Z,61.36
2023-03-31T01:13:08.455Z,61.03
2023-03-31T01:15:37.296Z,61.28
2023-03-31T01:18:07.268Z,61.27
2023-03-31T01:21:04.003Z,61.22
2023-03-31T01:24:18.772Z,62.25
2023-03-31T01:27:22.362Z,62.12
2023-03-31T01:30:27.318Z,62.91
2023-03-31T01:33:14.006Z,63.97
2023-03-31T01:36:01.042Z,64.47
2023-03-31T01:39:04.119Z,63.31
2023-03-31T01:41:45.555Z,63.12
2023-03-31T01:44:32.005Z,62.96
2023-03-31T01:47:09.510Z,63.36
2023-03-31T01:49:37.565Z,63.45
2023-03-31T01:52:19.034Z,63.26
2023-03-31T01:54:51.029Z,63.74
2023-03-31T01:57:35.569Z,64.53
2023-03-31T02:00:12.044Z,65.33
2023-03-31T02:02:51.785Z,65.18
2023-03-31T02:05:27.016Z,67.39
2023-03-31T02:08:05.127Z,66.82
2023-03-31T02:10:35.339Z,67.19
2023-03-31T02:13:05.401Z,66.75
2023-03-31T02:15:38.556Z,67.13
2023-03-31T02:18:13.280Z,67.73
2023-03-31T02:20:44.320Z,66.93
2023-03-31T02:23:15.594Z,66.40
2023-03-31T02:25:51.116Z,67.74
2023-03-31T02:28:23.528Z,68.58
2023-03-31T02:31:33.481Z,67.39
2023-03-31T02:34:03.034Z,67.17
2023-03-31T02:36:34.709Z,67.24
2023-03-31T02:39:07.172Z,67.42
2023-03-31T02:41:35.952Z,68.06
2023-03-31T02:44:04.237Z,67.49
2023-03-31T02:46:33.125Z,67.49
2023-03-31T02:49:04.728Z,67.31
2023-03-31T02:52:11.959Z,67.32
2023-03-31T02:55:03.597Z,67.64
2023-03-31T02:57:50.096Z,67.93
2023-03-31T03:01:06.242Z,69.23
2023-03-31T03:04:02.723Z,70.98
2023-03-31T03:06:30.696Z,71.42
2023-03-31T03:09:46.691Z,70.57
2023-03-31T03:12:36.545Z,70.78
2023-03-31T03:15:13.764Z,71.27
2023-03-31T03:17:46.860Z,72.20
2023-03-31T03:20:16.446Z,72.09
2023-03-31T03:22:44.428Z,71.28
2023-03-31T03:25:14.331Z,72.35
2023-03-31T03:27:42.302Z,71.69
2023-03-31T03:30:12.864Z,71.45
2023-03-31T03:32:42.005Z,71.73
2023-03-31T03:35:11.136Z,71.42
2023-03-31T03:37:39.394Z,72.20
2023-03-31T03:40:09.006Z,71.93
2023-03-31T03:42:38.683Z,71.88
2023-03-31T03:45:07.914Z,72.11
2023-03-31T03:47:36.817Z,73.59
2023-03-31T03:50:05.917Z,74.66
2023-03-31T03:52:34.073Z,73.15
2023-03-31T03:55:02.269Z,73.12
2023-03-31T03:57:30.403Z,73.04
2023-03-31T03:59:58.699Z,73.09
2023-03-31T04:02:29.100Z,73.40
2023-03-31T04:04:57.946Z,73.70
2023-03-31T04:07:26.265Z,73.74
2023-03-31T04:09:54.232Z,73.78
2023-03-31T04:12:22.212Z,73.73
2023-03-31T04:14:50.488Z,73.45
2023-03-31T04:17:18.763Z,73.39
2023-03-31T04:19:50.953Z,73.25
2023-03-31T04:22:20.834Z,73.48
2023-03-31T04:24:52.857Z,73.73
2023-03-31T04:27:21.386Z,74.79
2023-03-31T04:29:54.932Z,74.52
2023-03-31T04:32:23.987Z,74.24
2023-03-31T04:34:52.049Z,75.53
2023-03-31T04:37:20.120Z,76.52
2023-03-31T04:39:50.769Z,76.25
2023-03-31T04:42:18.890Z,76.69
2023-03-31T04:44:47.195Z,76.88
2023-03-31T04:47:15.571Z,76.80
2023-03-31T04:49:43.641Z,77.28
2023-03-31T04:52:11.736Z,77.19
2023-03-31T04:54:39.771Z,77.00
2023-03-31T04:57:08.021Z,76.51
2023-03-31T04:59:36.018Z,76.74
2023-03-31T05:02:04.136Z,75.83
2023-03-31T05:04:32.477Z,75.32
2023-03-31T05:07:00.551Z,76.14
2023-03-31T05:09:28.727Z,75.73
2023-03-31T05:11:57.622Z,77.09
2023-03-31T05:14:25.793Z,77.69
2023-03-31T05:16:58.160Z,77.20
2023-03-31T05:19:26.333Z,77.22
2023-03-31T05:21:54.227Z,77.16
2023-03-31T05:24:22.340Z,77.82
2023-03-31T05:26:53.075Z,76.44
2023-03-31T05:29:22.210Z,76.19
2023-03-31T05:31:51.005Z,75.24
2023-03-31T05:34:18.964Z,75.16
2023-03-31T05:36:48.389Z,74.69
2023-03-31T05:39:16.495Z,75.34
2023-03-31T05:41:44.605Z,75.68
2023-03-31T05:44:12.773Z,74.71
2023-03-31T05:46:41.637Z,74.21
2023-03-31T05:49:11.463Z,72.90
2023-03-31T05:51:39.746Z,73.61
2023-03-31T05:54:08.429Z,72.73
2023-03-31T05:56:36.713Z,71.15
2023-03-31T05:59:05.404Z,71.89
2023-03-31T06:01:33.749Z,72.36
2023-03-31T06:04:02.196Z,70.93
2023-03-31T06:06:30.548Z,70.82
2023-03-31T06:08:58.795Z,71.10
2023-03-31T06:11:27.288Z,71.53
2023-03-31T06:13:55.360Z,71.80
2023-03-31T06:16:23.661Z,72.02
2023-03-31T06:18:53.599Z,72.00
2023-03-31T06:21:21.841Z,71.82
2023-03-31T06:23:53.100Z,71.77
2023-03-31T06:26:22.886Z,72.26
2023-03-31T06:28:51.067Z,72.44
2023-03-31T06:31:22.092Z,72.94
2023-03-31T06:33:50.524Z,73.28
2023-03-31T06:36:21.223Z,73.21
2023-03-31T06:38:50.609Z,73.44
2023-03-31T06:41:21.272Z,74.46
2023-03-31T06:43:49.940Z,75.39
2023-03-31T06:46:18.876Z,74.84
2023-03-31T06:48:47.391Z,74.49
2023-03-31T06:51:16.060Z,75.46
2023-03-31T06:53:44.153Z,74.81
2023-03-31T06:56:12.308Z,74.68
2023-03-31T06:58:40.303Z,75.49
2023-03-31T07:01:08.724Z,75.67
2023-03-31T07:03:38.224Z,75.76
2023-03-31T07:06:06.752Z,76.38
2023-03-31T07:08:35.040Z,76.73
2023-03-31T07:11:03.259Z,76.30
2023-03-31T07:13:31.924Z,76.39
2023-03-31T07:16:00.316Z,76.69
2023-03-31T07:18:34.868Z,76.84
2023-03-31T07:21:07.910Z,76.91
2023-03-31T07:23:39.018Z,76.49
2023-03-31T07:26:07.520Z,76.65
2023-03-31T07:28:35.766Z,77.12
2023-03-31T07:31:11.272Z,76.80
2023-03-31T07:33:39.376Z,77.47
2023-03-31T07:36:13.223Z,77.81
2023-03-31T07:38:44.207Z,76.48
2023-03-31T07:41:18.730Z,76.19
2023-03-31T07:43:48.161Z,76.19
2023-03-31T07:46:19.234Z,76.53
2023-03-31T07:48:49.158Z,76.58
2023-03-31T07:51:20.522Z,76.55
2023-03-31T07:55:14.366Z,76.31
2023-03-31T07:57:43.582Z,75.89
2023-03-31T08:00:12.876Z,76.04
2023-03-31T08:02:43.258Z,76.38
2023-03-31T08:05:16.440Z,76.90
2023-03-31T08:07:46.777Z,77.24
2023-03-31T08:10:18.876Z,77.17
2023-03-31T08:12:48.019Z,77.61
2023-03-31T08:15:16.729Z,78.12
2023-03-31T08:17:44.873Z,78.05
2023-03-31T08:20:13.601Z,78.88
2023-03-31T08:22:42.158Z,78.25
2023-03-31T08:25:11.067Z,78.06
2023-03-31T08:27:40.979Z,77.94
2023-03-31T08:30:11.499Z,77.67
2023-03-31T08:32:39.574Z,77.99
2023-03-31T08:35:09.759Z,77.37
2023-03-31T08:37:40.700Z,77.36
2023-03-31T08:40:19.480Z,77.39
2023-03-31T08:43:00.963Z,77.52
2023-03-31T08:45:37.178Z,77.17
2023-03-31T08:48:29.953Z,77.17
2023-03-31T08:51:04.413Z,77.29
2023-03-31T08:53:41.224Z,77.36
2023-03-31T08:56:19.622Z,77.56
2023-03-31T08:58:51.025Z,77.19
2023-03-31T09:01:52.246Z,76.52
2023-03-31T09:04:32.912Z,75.27
2023-03-31T09:07:24.842Z,74.20
2023-03-31T09:10:08.067Z,73.94
2023-03-31T09:12:49.349Z,73.99
2023-03-31T09:15:37.597Z,73.94
2023-03-31T09:18:19.182Z,72.41
2023-03-31T09:20:52.860Z,70.86
2023-03-31T09:23:57.648Z,70.79
2023-03-31T09:26:55.809Z,70.66
2023-03-31T09:29:51.497Z,70.00
2023-03-31T09:32:30.882Z,70.28
2023-03-31T09:35:12.830Z,71.52
2023-03-31T09:37:40.763Z,71.67
2023-03-31T09:40:17.143Z,71.94
2023-03-31T09:42:47.877Z,71.75
2023-03-31T09:45:18.311Z,71.43
2023-03-31T09:47:52.307Z,71.41
2023-03-31T09:50:25.109Z,71.65
2023-03-31T09:52:59.008Z,71.41
2023-03-31T09:55:43.226Z,71.05
2023-03-31T09:58:17.187Z,71.11
2023-03-31T10:01:04.801Z,71.32
2023-03-31T10:03:37.361Z,71.08
2023-03-31T10:06:11.399Z,70.50
2023-03-31T10:08:48.177Z,69.93
2023-03-31T10:11:16.967Z,69.85
2023-03-31T10:13:59.037Z,69.76
2023-03-31T10:16:29.922Z,69.77
2023-03-31T10:19:28.792Z,69.62
2023-03-31T10:22:16.852Z,69.64
2023-03-31T10:24:46.456Z,69.71
2023-03-31T10:27:23.717Z,69.30
2023-03-31T10:29:57.510Z,69.51
2023-03-31T10:32:41.701Z,70.07
2023-03-31T10:35:28.020Z,70.58
2023-03-31T10:38:03.351Z,70.96
2023-03-31T10:40:36.582Z,71.62
2023-03-31T10:43:04.667Z,71.28
2023-03-31T10:45:47.583Z,71.85
2023-03-31T10:48:28.982Z,71.81
2023-03-31T10:51:16.294Z,71.89
2023-03-31T10:53:47.056Z,71.96
2023-03-31T10:56:41.944Z,72.01
2023-03-31T10:59:25.596Z,71.17
2023-03-31T11:02:05.961Z,70.13
2023-03-31T11:04:58.776Z,69.53
2023-03-31T11:08:01.966Z,69.01
2023-03-31T11:10:52.735Z,68.59
2023-03-31T11:13:51.472Z,67.73
2023-03-31T11:16:31.396Z,67.27
2023-03-31T11:19:08.493Z,66.99
2023-03-31T11:21:46.187Z,66.76
2023-03-31T11:24:56.445Z,66.18
2023-03-31T11:27:27.592Z,65.03
2023-03-31T11:30:14.491Z,64.05
2023-03-31T11:33:20.147Z,64.10
2023-03-31T11:35:54.366Z,63.50
2023-03-31T11:39:01.135Z,63.16
2023-03-31T11:41:48.674Z,63.42
2023-03-31T11:44:20.059Z,63.94
2023-03-31T11:46:51.052Z,64.23
2023-03-31T11:49:22.612Z,64.30
2023-03-31T11:52:02.334Z,63.47
2023-03-31T11:54:58.520Z,63.25
2023-03-31T11:57:39.478Z,63.47
2023-03-31T12:00:25.561Z,63.46
2023-03-31T12:03:08.115Z,63.30
2023-03-31T12:05:44.398Z,64.26
2023-03-31T12:08:19.274Z,64.18
2023-03-31T12:11:02.891Z,63.65
2023-03-31T12:13:40.080Z,64.05
2023-03-31T12:16:27.363Z,63.74
2023-03-31T12:19:22.802Z,63.19
2023-03-31T12:21:56.812Z,62.81
2023-03-31T12:24:24.980Z,62.95
2023-03-31T12:27:18.867Z,63.10
2023-03-31T12:29:59.537Z,64.16
2023-03-31T12:32:33.598Z,64.63
2023-03-31T12:35:13.868Z,64.71
2023-03-31T12:37:59.488Z,64.94
2023-03-31T12:40:42.290Z,64.88
2023-03-31T12:43:39.656Z,64.53
2023-03-31T12:46:10.705Z,64.36
2023-03-31T12:48:55.672Z,63.79
2023-03-31T12:51:42.126Z,63.03
2023-03-31T12:54:25.600Z,63.82
2023-03-31T12:57:08.579Z,65.18
2023-03-31T12:59:45.191Z,65.95
2023-03-31T13:02:16.338Z,66.31
2023-03-31T13:04:45.012Z,67.07
2023-03-31T13:07:29.435Z,67.21
2023-03-31T13:10:18.905Z,67.81
2023-03-31T13:13:13.646Z,69.15
2023-03-31T13:15:51.883Z,69.86
2023-03-31T13:18:22.007Z,69.92
2023-03-31T13:23:37.293Z,69.63
2023-03-31T13:26:07.074Z,69.74
2023-03-31T13:28:42.446Z,69.53
2023-03-31T13:31:12.962Z,69.70
2023-03-31T13:33:45.866Z,69.68
2023-03-31T13:36:28.942Z,69.32
2023-03-31T13:39:24.441Z,69.36
2023-03-31T13:42:01.430Z,69.84
2023-03-31T13:45:05.574Z,70.40
2023-03-31T13:47:34.537Z,70.44
2023-03-31T13:50:16.345Z,69.79
2023-03-31T13:53:05.288Z,69.82
2023-03-31T13:56:01.427Z,69.79
2023-03-31T13:58:44.840Z,69.63
2023-03-31T14:01:37.512Z,69.40
2023-03-31T14:04:23.769Z,68.97
2023-03-31T14:07:20.531Z,68.60
2023-03-31T14:09:52.915Z,69.02
2023-03-31T14:12:41.388Z,69.42
2023-03-31T14:15:19.743Z,69.57
2023-03-31T14:17:48.415Z,69.40
2023-03-31T14:20:43.672Z,69.57
2023-03-31T14:23:14.494Z,70.40
2023-03-31T14:25:56.574Z,70.80
2023-03-31T14:28:27.941Z,71.02
2023-03-31T14:31:20.672Z,71.47
2023-03-31T14:34:08.724Z,72.05
2023-03-31T14:36:58.143Z,72.53
2023-03-31T14:39:32.419Z,72.79
2023-03-31T14:42:06.371Z,73.07
2023-03-31T14:44:35.230Z,73.23
2023-03-31T14:47:03.717Z,73.43
2023-03-31T14:49:37.834Z,73.64
2023-03-31T14:52:23.708Z,73.42
2023-03-31T14:54:53.424Z,73.56
2023-03-31T14:57:29.564Z,73.75
2023-03-31T14:59:58.357Z,73.81
2023-03-31T15:02:33.921Z,73.82
2023-03-31T15:05:23.730Z,73.80
2023-03-31T15:07:52.163Z,73.65
2023-03-31T15:10:22.027Z,73.56
2023-03-31T15:12:51.274Z,73.29
2023-03-31T15:15:21.088Z,73.37
2023-03-31T15:17:49.345Z,73.24
2023-03-31T15:20:29.424Z,73.06
2023-03-31T15:22:59.628Z,73.31
2023-03-31T15:25:42.240Z,73.51
2023-03-31T15:28:16.868Z,73.58
2023-03-31T15:30:48.949Z,73.50
2023-03-31T15:33:33.314Z,73.73
2023-03-31T15:36:01.433Z,74.19
2023-03-31T15:38:32.032Z,74.53
2023-03-31T15:41:00.873Z,74.54
2023-03-31T15:43:31.642Z,74.37
2023-03-31T15:46:01.576Z,74.34
2023-03-31T15:48:34.566Z,74.15
2023-03-31T15:51:05.813Z,74.04
2023-03-31T15:53:43.844Z,74.14
2023-03-31T15:56:43.781Z,73.84
2023-03-31T15:59:41.553Z,74.17
2023-03-31T16:02:19.237Z,74.46
2023-03-31T16:04:54.464Z,74.52
2023-03-31T16:07:27.319Z,74.54
2023-03-31T16:09:56.040Z,74.45
2023-03-31T16:12:29.937Z,74.46
2023-03-31T16:15:03.447Z,74.41
2023-03-31T16:17:48.688Z,74.34
2023-03-31T16:20:22.710Z,74.39
2023-03-31T16:22:55.482Z,74.39
2023-03-31T16:25:26.029Z,74.15
2023-03-31T16:27:56.468Z,74.40
2023-03-31T16:30:40.417Z,74.60
2023-03-31T16:33:18.135Z,74.86
2023-03-31T16:35:53.246Z,75.50
2023-03-31T16:38:23.554Z,75.27
2023-03-31T16:40:54.736Z,75.80
2023-03-31T16:43:28.821Z,76.56
2023-03-31T16:46:04.013Z,76.21
2023-03-31T16:48:36.334Z,76.16
2023-03-31T16:51:04.809Z,76.48
2023-03-31T16:53:35.979Z,75.90
2023-03-31T16:56:07.839Z,75.88
2023-03-31T16:58:37.928Z,75.83
2023-03-31T17:01:07.702Z,75.78
2023-03-31T17:03:41.982Z,76.43
2023-03-31T17:06:13.176Z,76.43
2023-03-31T17:08:41.961Z,76.54
2023-03-31T17:11:12.812Z,76.28
2023-03-31T17:13:42.246Z,76.24
2023-03-31T17:16:17.346Z,76.56
2023-03-31T17:18:49.938Z,77.63
2023-03-31T17:21:20.818Z,78.40
2023-03-31T17:23:49.909Z,78.32
2023-03-31T17:26:18.650Z,78.46
2023-03-31T17:28:47.036Z,78.57
2023-03-31T17:31:17.873Z,78.75
2023-03-31T17:33:46.960Z,78.83
2023-03-31T17:36:15.773Z,78.59
2023-03-31T17:38:44.628Z,78.56
2023-03-31T17:41:13.674Z,78.81
2023-03-31T17:43:45.185Z,78.86
2023-03-31T17:46:14.016Z,78.86
2023-03-31T17:48:43.439Z,78.94
2023-03-31T17:51:17.753Z,78.56
2023-03-31T17:53:47.866Z,78.87
2023-03-31T17:56:17.632Z,79.02
2023-03-31T17:58:46.919Z,78.99
2023-03-31T18:01:15.716Z,79.75
2023-03-31T18:03:46.209Z,79.90
2023-03-31T18:06:15.128Z,79.80
2023-03-31T18:08:44.475Z,80.25
2023-03-31T18:11:13.382Z,82.03
2023-03-31T18:13:42.304Z,81.60
2023-03-31T18:16:13.178Z,81.61
2023-03-31T18:18:42.449Z,81.91
2023-03-31T18:21:13.690Z,81.51
2023-03-31T18:23:41.976Z,82.01
2023-03-31T18:26:12.292Z,82.00
2023-03-31T18:28:41.164Z,82.22
2023-03-31T18:31:11.011Z,82.60
2023-03-31T18:33:45.631Z,82.61
2023-03-31T18:36:18.553Z,82.83
2023-03-31T18:38:48.633Z,83.43
2023-03-31T18:41:20.364Z,84.56
2023-03-31T18:43:52.157Z,84.93
2023-03-31T18:46:20.631Z,86.71
2023-03-31T18:48:48.800Z,86.47
2023-03-31T18:51:16.848Z,86.17
2023-03-31T18:53:44.944Z,85.27
2023-03-31T18:56:13.616Z,84.79
2023-03-31T18:58:42.502Z,84.31
2023-03-31T19:01:11.112Z,84.27
2023-03-31T19:03:43.951Z,84.16
2023-03-31T19:06:13.764Z,84.65
2023-03-31T19:08:41.942Z,84.72
2023-03-31T19:11:15.258Z,85.13
2023-03-31T19:13:44.529Z,85.26
2023-03-31T19:16:14.471Z,85.23
2023-03-31T19:18:44.016Z,84.96
2023-03-31T19:21:12.381Z,84.86
2023-03-31T19:23:40.824Z,84.70
2023-03-31T19:26:14.547Z,84.75
2023-03-31T19:28:42.697Z,84.87
2023-03-31T19:31:11.475Z,84.69
2023-03-31T19:33:39.553Z,84.62
2023-03-31T19:36:07.948Z,85.06
2023-03-31T19:38:36.960Z,85.28
2023-03-31T19:41:06.120Z,85.40
2023-03-31T19:43:34.619Z,85.15
2023-03-31T19:46:03.258Z,85.11
2023-03-31T19:48:34.165Z,85.21
2023-03-31T19:51:07.512Z,84.96
2023-03-31T19:53:39.126Z,84.72
2023-03-31T19:56:13.184Z,84.52
2023-03-31T19:58:41.568Z,84.49
2023-03-31T20:01:20.213Z,84.15
2023-03-31T20:03:53.438Z,84.14
2023-03-31T20:06:24.952Z,84.12
2023-03-31T20:09:06.904Z,83.90
2023-03-31T20:11:35.302Z,83.97
2023-03-31T20:14:04.259Z,83.88
2023-03-31T20:16:33.106Z,83.72
2023-03-31T20:19:04.634Z,83.68
2023-03-31T20:21:35.677Z,83.83
2023-03-31T20:24:04.599Z,83.58
2023-03-31T20:26:34.330Z,83.28
2023-03-31T20:29:04.293Z,83.34
2023-03-31T20:31:39.290Z,83.22
2023-03-31T20:34:16.723Z,82.84
2023-03-31T20:36:49.462Z,82.60
2023-03-31T20:39:20.002Z,82.66
2023-03-31T20:41:50.050Z,82.41
2023-03-31T20:44:18.809Z,82.20
2023-03-31T20:46:47.642Z,81.71
2023-03-31T20:49:15.761Z,81.42
2023-03-31T20:51:45.698Z,81.44
2023-03-31T20:54:13.932Z,81.11
2023-03-31T20:56:42.245Z,81.23
2023-03-31T20:59:13.015Z,81.20
2023-03-31T21:01:42.585Z,81.39
2023-03-31T21:04:12.031Z,81.33
2023-03-31T21:06:43.477Z,81.21
2023-03-31T21:09:12.492Z,81.14
2023-03-31T21:11:41.689Z,81.01
2023-03-31T21:14:14.925Z,80.86
2023-03-31T21:16:43.864Z,80.75
2023-03-31T21:19:12.586Z,80.62
2023-03-31T21:21:44.346Z,80.79
2023-03-31T21:24:13.208Z,80.50
2023-03-31T21:26:41.923Z,80.82
2023-03-31T21:29:10.111Z,81.00
2023-03-31T21:31:38.389Z,80.81
2023-03-31T21:34:06.467Z,80.55
2023-03-31T21:36:34.716Z,80.24
2023-03-31T21:39:02.751Z,80.10
2023-03-31T21:41:31.572Z,79.92
2023-03-31T21:44:02.372Z,79.84
2023-03-31T21:46:33.098Z,79.80
2023-03-31T21:49:02.950Z,79.89
2023-03-31T21:51:31.380Z,79.99
2023-03-31T21:53:59.691Z,79.86
2023-03-31T21:56:28.564Z,79.86
2023-03-31T21:59:02.440Z,80.10
2023-03-31T22:01:31.688Z,80.26
2023-03-31T22:04:00.882Z,79.97
2023-03-31T22:06:29.184Z,79.48
2023-03-31T22:08:57.238Z,79.65
2023-03-31T22:11:26.787Z,79.64
2023-03-31T22:13:55.056Z,79.96
2023-03-31T22:16:23.598Z,80.25
2023-03-31T22:18:53.070Z,80.28
2023-03-31T22:21:27.424Z,80.31
2023-03-31T22:23:58.747Z,80.29
2023-03-31T22:26:29.309Z,80.32
2023-03-31T22:28:58.191Z,80.41
2023-03-31T22:31:27.175Z,80.61
2023-03-31T22:33:55.521Z,80.98
2023-03-31T22:36:23.700Z,80.70
2023-03-31T22:38:51.902Z,80.80
2023-03-31T22:41:19.967Z,80.82
2023-03-31T22:43:47.966Z,80.69
2023-03-31T22:46:16.213Z,80.85
2023-03-31T22:48:48.851Z,80.91
2023-03-31T22:51:17.588Z,81.15
2023-03-31T22:53:51.175Z,81.35
2023-03-31T22:56:20.206Z,81.86
2023-03-31T22:58:48.120Z,82.29
2023-03-31T23:01:18.946Z,82.52
2023-03-31T23:03:47.921Z,82.59
2023-03-31T23:06:16.758Z,83.24
2023-03-31T23:08:45.659Z,83.20
2023-03-31T23:11:13.850Z,82.90
2023-03-31T23:13:41.991Z,82.76
2023-03-31T23:16:20.555Z,82.75
2023-03-31T23:18:50.144Z,82.71
2023-03-31T23:21:22.528Z,82.52
2023-03-31T23:23:53.874Z,83.03
2023-03-31T23:26:24.837Z,83.41
2023-03-31T23:28:53.573Z,82.82
2023-03-31T23:31:28.969Z,82.94
2023-03-31T23:33:58.660Z,83.36
2023-03-31T23:36:28.122Z,83.53
2023-03-31T23:38:57.114Z,83.59
2023-03-31T23:41:26.553Z,83.95
2023-03-31T23:43:56.101Z,84.36
2023-03-31T23:46:26.081Z,85.46
2023-03-31T23:48:54.296Z,84.64
2023-03-31T23:51:22.488Z,84.51
2023-03-31T23:53:50.639Z,84.96
2023-03-31T23:56:18.908Z,84.40
2023-03-31T23:58:47.170Z,84.23
